sensor_id;sensor_type;location;lat;lon;timestamp;P1;durP1;ratioP1;P2;durP2;ratioP2
68357;SDS011;55276;53.260;50.222;2022-12-18T00:02:07;26.73;;;9.05;;
68357;SDS011;55276;53.260;50.222;2022-12-18T00:04:33;25.85;;;10.00;;
68357;SDS011;55276;53.260;50.222;2022-12-18T00:06:59;27.88;;;9.43;;
68357;SDS011;55276;53.260;50.222;2022-12-18T00:09:25;23.85;;;9.32;;
68357;SDS011;55276;53.260;50.222;2022-12-18T00:11:51;28.60;;;9.57;;
68357;SDS011;55276;53.260;50.222;2022-12-18T00:14:17;25.27;;;9.35;;
68357;SDS011;55276;53.260;50.222;2022-12-18T00:16:44;27.00;;;10.02;;
68357;SDS011;55276;53.260;50.222;2022-12-18T00:19:11;29.73;;;10.05;;
68357;SDS011;55276;53.260;50.222;2022-12-18T00:21:40;27.38;;;9.95;;
68357;SDS011;55276;53.260;50.222;2022-12-18T00:24:07;22.95;;;9.27;;
68357;SDS011;55276;53.260;50.222;2022-12-18T00:26:34;24.35;;;10.43;;
68357;SDS011;55276;53.260;50.222;2022-12-18T00:29:12;30.50;;;11.20;;
68357;SDS011;55276;53.260;50.222;2022-12-18T00:31:40;29.98;;;10.50;;
68357;SDS011;55276;53.260;50.222;2022-12-18T00:34:08;26.85;;;10.25;;
68357;SDS011;55276;53.260;50.222;2022-12-18T00:36:39;29.48;;;10.75;;
68357;SDS011;55276;53.260;50.222;2022-12-18T00:39:06;27.00;;;11.02;;
68357;SDS011;55276;53.260;50.222;2022-12-18T00:41:32;30.95;;;10.82;;
68357;SDS011;55276;53.260;50.222;2022-12-18T00:44:17;29.80;;;10.75;;
68357;SDS011;55276;53.260;50.222;2022-12-18T00:46:44;25.97;;;9.97;;
68357;SDS011;55276;53.260;50.222;2022-12-18T00:49:15;29.60;;;9.60;;
68357;SDS011;55276;53.260;50.222;2022-12-18T00:51:43;23.88;;;8.73;;
68357;SDS011;55276;53.260;50.222;2022-12-18T00:54:09;24.83;;;9.35;;
68357;SDS011;55276;53.260;50.222;2022-12-18T00:56:36;27.77;;;10.45;;
68357;SDS011;55276;53.260;50.222;2022-12-18T00:59:03;26.77;;;10.00;;
68357;SDS011;55276;53.260;50.222;2022-12-18T01:01:30;25.92;;;9.45;;
68357;SDS011;55276;53.260;50.222;2022-12-18T01:04:00;26.30;;;9.88;;
68357;SDS011;55276;53.260;50.222;2022-12-18T01:06:27;25.30;;;9.93;;
68357;SDS011;55276;53.260;50.222;2022-12-18T01:08:53;30.00;;;10.45;;
68357;SDS011;55276;53.260;50.222;2022-12-18T01:11:20;30.40;;;10.63;;
68357;SDS011;55276;53.260;50.222;2022-12-18T01:13:46;27.40;;;10.07;;
68357;SDS011;55276;53.260;50.222;2022-12-18T01:16:13;23.35;;;8.63;;
68357;SDS011;55276;53.260;50.222;2022-12-18T01:18:41;25.40;;;9.73;;
68357;SDS011;55276;53.260;50.222;2022-12-18T01:21:11;28.65;;;10.05;;
68357;SDS011;55276;53.260;50.222;2022-12-18T01:23:50;26.23;;;9.50;;
68357;SDS011;55276;53.260;50.222;2022-12-18T01:26:17;25.00;;;8.35;;
68357;SDS011;55276;53.260;50.222;2022-12-18T01:28:43;27.20;;;9.90;;
68357;SDS011;55276;53.260;50.222;2022-12-18T01:33:43;24.92;;;9.88;;
68357;SDS011;55276;53.260;50.222;2022-12-18T01:36:20;30.95;;;9.50;;
68357;SDS011;55276;53.260;50.222;2022-12-18T01:38:47;27.92;;;9.05;;
68357;SDS011;55276;53.260;50.222;2022-12-18T01:41:15;21.20;;;8.40;;
68357;SDS011;55276;53.260;50.222;2022-12-18T01:43:45;25.95;;;9.23;;
68357;SDS011;55276;53.260;50.222;2022-12-18T01:46:16;21.30;;;8.43;;
68357;SDS011;55276;53.260;50.222;2022-12-18T01:51:12;21.88;;;7.55;;
68357;SDS011;55276;53.260;50.222;2022-12-18T01:53:39;26.17;;;8.75;;
68357;SDS011;55276;53.260;50.222;2022-12-18T01:56:06;26.02;;;8.05;;
68357;SDS011;55276;53.260;50.222;2022-12-18T02:01:32;23.33;;;8.18;;
68357;SDS011;55276;53.260;50.222;2022-12-18T02:09:59;21.80;;;9.05;;
68357;SDS011;55276;53.260;50.222;2022-12-18T02:12:38;24.15;;;8.23;;
68357;SDS011;55276;53.260;50.222;2022-12-18T02:18:11;24.08;;;8.40;;
68357;SDS011;55276;53.260;50.222;2022-12-18T02:20:52;21.02;;;7.95;;
68357;SDS011;55276;53.260;50.222;2022-12-18T02:26:43;21.50;;;8.18;;
68357;SDS011;55276;53.260;50.222;2022-12-18T02:29:16;23.30;;;8.45;;
68357;SDS011;55276;53.260;50.222;2022-12-18T02:31:54;26.98;;;7.75;;
68357;SDS011;55276;53.260;50.222;2022-12-18T02:34:29;26.45;;;8.60;;
68357;SDS011;55276;53.260;50.222;2022-12-18T02:37:00;22.17;;;8.50;;
68357;SDS011;55276;53.260;50.222;2022-12-18T02:39:29;27.70;;;9.00;;
68357;SDS011;55276;53.260;50.222;2022-12-18T02:41:58;23.48;;;8.43;;
68357;SDS011;55276;53.260;50.222;2022-12-18T02:44:27;29.95;;;8.80;;
68357;SDS011;55276;53.260;50.222;2022-12-18T02:46:53;23.27;;;7.90;;
68357;SDS011;55276;53.260;50.222;2022-12-18T02:49:35;25.40;;;8.55;;
68357;SDS011;55276;53.260;50.222;2022-12-18T02:52:35;25.75;;;8.73;;
68357;SDS011;55276;53.260;50.222;2022-12-18T02:58:03;24.05;;;8.65;;
68357;SDS011;55276;53.260;50.222;2022-12-18T03:00:54;26.40;;;9.13;;
68357;SDS011;55276;53.260;50.222;2022-12-18T03:03:59;24.83;;;9.35;;
68357;SDS011;55276;53.260;50.222;2022-12-18T03:06:30;25.50;;;8.43;;
68357;SDS011;55276;53.260;50.222;2022-12-18T03:09:22;24.13;;;8.75;;
68357;SDS011;55276;53.260;50.222;2022-12-18T03:11:55;29.08;;;9.27;;
68357;SDS011;55276;53.260;50.222;2022-12-18T03:14:44;24.40;;;8.75;;
68357;SDS011;55276;53.260;50.222;2022-12-18T03:17:13;23.77;;;8.57;;
68357;SDS011;55276;53.260;50.222;2022-12-18T03:19:44;26.58;;;9.13;;
68357;SDS011;55276;53.260;50.222;2022-12-18T03:22:12;26.40;;;9.00;;
68357;SDS011;55276;53.260;50.222;2022-12-18T03:24:41;25.45;;;9.38;;
68357;SDS011;55276;53.260;50.222;2022-12-18T03:27:10;30.08;;;9.88;;
68357;SDS011;55276;53.260;50.222;2022-12-18T03:29:43;23.50;;;9.07;;
68357;SDS011;55276;53.260;50.222;2022-12-18T03:32:27;25.92;;;9.23;;
68357;SDS011;55276;53.260;50.222;2022-12-18T03:34:57;30.23;;;9.32;;
68357;SDS011;55276;53.260;50.222;2022-12-18T03:37:26;28.88;;;9.55;;
68357;SDS011;55276;53.260;50.222;2022-12-18T03:39:52;24.60;;;8.68;;
68357;SDS011;55276;53.260;50.222;2022-12-18T03:42:22;27.55;;;8.90;;
68357;SDS011;55276;53.260;50.222;2022-12-18T03:44:57;24.88;;;8.90;;
68357;SDS011;55276;53.260;50.222;2022-12-18T03:48:20;25.42;;;9.68;;
68357;SDS011;55276;53.260;50.222;2022-12-18T03:53:25;25.10;;;8.57;;
68357;SDS011;55276;53.260;50.222;2022-12-18T03:55:57;23.02;;;8.40;;
68357;SDS011;55276;53.260;50.222;2022-12-18T04:00:52;20.83;;;9.23;;
68357;SDS011;55276;53.260;50.222;2022-12-18T04:03:21;20.48;;;8.18;;
68357;SDS011;55276;53.260;50.222;2022-12-18T04:05:49;22.58;;;8.93;;
68357;SDS011;55276;53.260;50.222;2022-12-18T04:08:17;22.48;;;8.57;;
68357;SDS011;55276;53.260;50.222;2022-12-18T04:10:44;26.60;;;9.85;;
68357;SDS011;55276;53.260;50.222;2022-12-18T04:13:10;29.90;;;9.38;;
68357;SDS011;55276;53.260;50.222;2022-12-18T04:15:36;28.05;;;9.95;;
68357;SDS011;55276;53.260;50.222;2022-12-18T04:18:03;24.17;;;9.10;;
68357;SDS011;55276;53.260;50.222;2022-12-18T04:20:29;30.45;;;10.18;;
68357;SDS011;55276;53.260;50.222;2022-12-18T04:22:55;25.40;;;9.63;;
68357;SDS011;55276;53.260;50.222;2022-12-18T04:25:21;20.88;;;9.05;;
68357;SDS011;55276;53.260;50.222;2022-12-18T04:27:47;25.02;;;9.50;;
68357;SDS011;55276;53.260;50.222;2022-12-18T04:30:13;24.75;;;9.18;;
68357;SDS011;55276;53.260;50.222;2022-12-18T04:32:40;22.90;;;9.05;;
68357;SDS011;55276;53.260;50.222;2022-12-18T04:35:08;25.65;;;9.60;;
68357;SDS011;55276;53.260;50.222;2022-12-18T04:37:35;26.45;;;9.38;;
68357;SDS011;55276;53.260;50.222;2022-12-18T04:40:01;24.90;;;9.77;;
68357;SDS011;55276;53.260;50.222;2022-12-18T04:42:28;23.88;;;8.93;;
68357;SDS011;55276;53.260;50.222;2022-12-18T04:44:54;25.33;;;9.38;;
68357;SDS011;55276;53.260;50.222;2022-12-18T04:47:20;24.67;;;9.40;;
68357;SDS011;55276;53.260;50.222;2022-12-18T04:49:46;27.05;;;9.95;;
68357;SDS011;55276;53.260;50.222;2022-12-18T04:52:12;25.77;;;9.35;;
68357;SDS011;55276;53.260;50.222;2022-12-18T04:54:38;26.20;;;8.82;;
68357;SDS011;55276;53.260;50.222;2022-12-18T04:57:04;29.67;;;9.90;;
68357;SDS011;55276;53.260;50.222;2022-12-18T04:59:30;29.42;;;9.93;;
68357;SDS011;55276;53.260;50.222;2022-12-18T05:01:56;27.85;;;10.32;;
68357;SDS011;55276;53.260;50.222;2022-12-18T05:04:22;27.38;;;10.55;;
68357;SDS011;55276;53.260;50.222;2022-12-18T05:06:48;28.02;;;10.85;;
68357;SDS011;55276;53.260;50.222;2022-12-18T05:09:14;27.02;;;10.48;;
68357;SDS011;55276;53.260;50.222;2022-12-18T05:11:40;29.52;;;9.85;;
68357;SDS011;55276;53.260;50.222;2022-12-18T05:14:06;29.42;;;11.20;;
68357;SDS011;55276;53.260;50.222;2022-12-18T05:16:32;26.67;;;9.65;;
68357;SDS011;55276;53.260;50.222;2022-12-18T05:18:59;28.20;;;10.55;;
68357;SDS011;55276;53.260;50.222;2022-12-18T05:21:25;29.13;;;9.95;;
68357;SDS011;55276;53.260;50.222;2022-12-18T05:23:51;28.35;;;9.82;;
68357;SDS011;55276;53.260;50.222;2022-12-18T05:26:17;24.52;;;9.73;;
68357;SDS011;55276;53.260;50.222;2022-12-18T05:28:44;28.80;;;10.02;;
68357;SDS011;55276;53.260;50.222;2022-12-18T05:31:11;24.48;;;9.57;;
68357;SDS011;55276;53.260;50.222;2022-12-18T05:33:58;24.30;;;10.23;;
68357;SDS011;55276;53.260;50.222;2022-12-18T05:36:24;23.27;;;9.23;;
68357;SDS011;55276;53.260;50.222;2022-12-18T05:38:51;28.48;;;10.00;;
68357;SDS011;55276;53.260;50.222;2022-12-18T05:41:17;25.95;;;9.63;;
68357;SDS011;55276;53.260;50.222;2022-12-18T05:43:43;27.45;;;9.98;;
68357;SDS011;55276;53.260;50.222;2022-12-18T05:46:12;26.58;;;10.48;;
68357;SDS011;55276;53.260;50.222;2022-12-18T05:48:44;29.02;;;11.45;;
68357;SDS011;55276;53.260;50.222;2022-12-18T05:51:12;32.20;;;11.35;;
68357;SDS011;55276;53.260;50.222;2022-12-18T05:53:41;28.15;;;11.20;;
68357;SDS011;55276;53.260;50.222;2022-12-18T05:56:09;31.60;;;11.33;;
68357;SDS011;55276;53.260;50.222;2022-12-18T05:58:37;28.58;;;11.30;;
68357;SDS011;55276;53.260;50.222;2022-12-18T06:01:22;29.17;;;11.15;;
68357;SDS011;55276;53.260;50.222;2022-12-18T06:03:50;25.98;;;10.90;;
68357;SDS011;55276;53.260;50.222;2022-12-18T06:06:18;31.77;;;12.32;;
68357;SDS011;55276;53.260;50.222;2022-12-18T06:08:51;26.05;;;11.15;;
68357;SDS011;55276;53.260;50.222;2022-12-18T06:12:15;30.92;;;12.38;;
68357;SDS011;55276;53.260;50.222;2022-12-18T06:14:41;35.10;;;12.27;;
68357;SDS011;55276;53.260;50.222;2022-12-18T06:17:19;39.97;;;13.70;;
68357;SDS011;55276;53.260;50.222;2022-12-18T06:19:45;32.08;;;13.13;;
68357;SDS011;55276;53.260;50.222;2022-12-18T06:22:11;34.90;;;13.35;;
68357;SDS011;55276;53.260;50.222;2022-12-18T06:30:37;32.60;;;13.00;;
68357;SDS011;55276;53.260;50.222;2022-12-18T06:33:12;36.92;;;13.63;;
68357;SDS011;55276;53.260;50.222;2022-12-18T06:36:04;34.28;;;13.52;;
68357;SDS011;55276;53.260;50.222;2022-12-18T06:38:44;33.67;;;14.10;;
68357;SDS011;55276;53.260;50.222;2022-12-18T06:41:14;39.03;;;13.55;;
68357;SDS011;55276;53.260;50.222;2022-12-18T06:43:48;34.28;;;12.98;;
68357;SDS011;55276;53.260;50.222;2022-12-18T06:46:14;35.33;;;13.27;;
68357;SDS011;55276;53.260;50.222;2022-12-18T06:48:42;35.42;;;12.95;;
68357;SDS011;55276;53.260;50.222;2022-12-18T06:51:11;34.78;;;12.57;;
68357;SDS011;55276;53.260;50.222;2022-12-18T06:53:37;31.88;;;12.52;;
68357;SDS011;55276;53.260;50.222;2022-12-18T06:56:05;34.70;;;12.85;;
68357;SDS011;55276;53.260;50.222;2022-12-18T06:58:38;36.40;;;14.02;;
68357;SDS011;55276;53.260;50.222;2022-12-18T07:01:05;32.00;;;12.77;;
68357;SDS011;55276;53.260;50.222;2022-12-18T07:03:33;36.15;;;12.65;;
68357;SDS011;55276;53.260;50.222;2022-12-18T07:05:59;38.58;;;13.13;;
68357;SDS011;55276;53.260;50.222;2022-12-18T07:08:25;34.75;;;13.98;;
68357;SDS011;55276;53.260;50.222;2022-12-18T07:10:52;33.05;;;13.25;;
68357;SDS011;55276;53.260;50.222;2022-12-18T07:13:19;35.35;;;13.52;;
68357;SDS011;55276;53.260;50.222;2022-12-18T07:15:45;34.90;;;13.25;;
68357;SDS011;55276;53.260;50.222;2022-12-18T07:18:11;32.58;;;13.60;;
68357;SDS011;55276;53.260;50.222;2022-12-18T07:20:37;33.85;;;13.30;;
68357;SDS011;55276;53.260;50.222;2022-12-18T07:23:04;34.45;;;13.52;;
68357;SDS011;55276;53.260;50.222;2022-12-18T07:25:38;36.15;;;13.60;;
68357;SDS011;55276;53.260;50.222;2022-12-18T07:28:05;31.20;;;12.45;;
68357;SDS011;55276;53.260;50.222;2022-12-18T07:30:38;37.13;;;14.48;;
68357;SDS011;55276;53.260;50.222;2022-12-18T07:33:04;38.58;;;13.95;;
68357;SDS011;55276;53.260;50.222;2022-12-18T07:35:30;34.40;;;14.07;;
68357;SDS011;55276;53.260;50.222;2022-12-18T07:38:08;35.95;;;13.45;;
68357;SDS011;55276;53.260;50.222;2022-12-18T07:40:34;34.15;;;14.35;;
68357;SDS011;55276;53.260;50.222;2022-12-18T07:43:00;35.60;;;14.20;;
68357;SDS011;55276;53.260;50.222;2022-12-18T07:45:26;39.30;;;14.63;;
68357;SDS011;55276;53.260;50.222;2022-12-18T07:47:53;34.25;;;14.77;;
68357;SDS011;55276;53.260;50.222;2022-12-18T07:50:19;40.65;;;14.52;;
68357;SDS011;55276;53.260;50.222;2022-12-18T07:52:45;39.17;;;14.30;;
68357;SDS011;55276;53.260;50.222;2022-12-18T07:55:12;44.78;;;15.77;;
68357;SDS011;55276;53.260;50.222;2022-12-18T07:57:38;38.42;;;15.32;;
68357;SDS011;55276;53.260;50.222;2022-12-18T08:00:04;45.00;;;15.57;;
68357;SDS011;55276;53.260;50.222;2022-12-18T08:02:31;38.30;;;14.75;;
68357;SDS011;55276;53.260;50.222;2022-12-18T08:04:57;42.92;;;15.75;;
68357;SDS011;55276;53.260;50.222;2022-12-18T08:07:27;39.45;;;15.90;;
68357;SDS011;55276;53.260;50.222;2022-12-18T08:10:00;38.75;;;16.15;;
68357;SDS011;55276;53.260;50.222;2022-12-18T08:12:27;43.17;;;17.17;;
68357;SDS011;55276;53.260;50.222;2022-12-18T08:17:32;40.15;;;15.55;;
68357;SDS011;55276;53.260;50.222;2022-12-18T08:19:58;43.03;;;16.60;;
68357;SDS011;55276;53.260;50.222;2022-12-18T08:22:24;41.78;;;15.93;;
68357;SDS011;55276;53.260;50.222;2022-12-18T08:24:51;39.00;;;15.73;;
68357;SDS011;55276;53.260;50.222;2022-12-18T08:27:19;42.30;;;17.65;;
68357;SDS011;55276;53.260;50.222;2022-12-18T08:29:45;44.85;;;17.38;;
68357;SDS011;55276;53.260;50.222;2022-12-18T08:32:14;45.83;;;17.48;;
68357;SDS011;55276;53.260;50.222;2022-12-18T08:34:44;40.78;;;16.98;;
68357;SDS011;55276;53.260;50.222;2022-12-18T08:37:10;43.92;;;17.77;;
68357;SDS011;55276;53.260;50.222;2022-12-18T08:39:39;40.58;;;17.02;;
68357;SDS011;55276;53.260;50.222;2022-12-18T08:42:05;43.60;;;16.13;;
68357;SDS011;55276;53.260;50.222;2022-12-18T08:45:07;47.28;;;19.13;;
68357;SDS011;55276;53.260;50.222;2022-12-18T08:47:33;43.80;;;16.27;;
68357;SDS011;55276;53.260;50.222;2022-12-18T08:49:59;43.75;;;17.63;;
68357;SDS011;55276;53.260;50.222;2022-12-18T08:52:26;41.78;;;18.25;;
68357;SDS011;55276;53.260;50.222;2022-12-18T08:54:56;48.13;;;18.70;;
68357;SDS011;55276;53.260;50.222;2022-12-18T08:57:22;49.60;;;18.45;;
68357;SDS011;55276;53.260;50.222;2022-12-18T08:59:48;47.53;;;18.38;;
68357;SDS011;55276;53.260;50.222;2022-12-18T09:02:14;47.45;;;19.13;;
68357;SDS011;55276;53.260;50.222;2022-12-18T09:04:40;46.30;;;18.48;;
68357;SDS011;55276;53.260;50.222;2022-12-18T09:07:12;44.70;;;18.23;;
68357;SDS011;55276;53.260;50.222;2022-12-18T09:09:38;48.50;;;19.80;;
68357;SDS011;55276;53.260;50.222;2022-12-18T09:12:04;47.08;;;19.75;;
68357;SDS011;55276;53.260;50.222;2022-12-18T09:14:31;48.63;;;19.90;;
68357;SDS011;55276;53.260;50.222;2022-12-18T09:16:57;47.13;;;18.30;;
68357;SDS011;55276;53.260;50.222;2022-12-18T09:19:23;53.47;;;20.73;;
68357;SDS011;55276;53.260;50.222;2022-12-18T09:21:49;52.72;;;20.50;;
68357;SDS011;55276;53.260;50.222;2022-12-18T09:24:15;54.75;;;21.10;;
68357;SDS011;55276;53.260;50.222;2022-12-18T09:26:42;56.83;;;21.50;;
68357;SDS011;55276;53.260;50.222;2022-12-18T09:29:08;50.72;;;21.15;;
68357;SDS011;55276;53.260;50.222;2022-12-18T09:31:38;50.38;;;20.70;;
68357;SDS011;55276;53.260;50.222;2022-12-18T09:34:07;48.30;;;20.45;;
68357;SDS011;55276;53.260;50.222;2022-12-18T09:36:33;50.05;;;20.77;;
68357;SDS011;55276;53.260;50.222;2022-12-18T09:38:59;50.05;;;20.20;;
68357;SDS011;55276;53.260;50.222;2022-12-18T09:44:00;49.83;;;20.45;;
68357;SDS011;55276;53.260;50.222;2022-12-18T09:46:44;48.42;;;20.70;;
68357;SDS011;55276;53.260;50.222;2022-12-18T09:49:21;54.22;;;21.85;;
68357;SDS011;55276;53.260;50.222;2022-12-18T09:51:57;65.15;;;23.63;;
68357;SDS011;55276;53.260;50.222;2022-12-18T09:54:35;54.33;;;20.00;;
68357;SDS011;55276;53.260;50.222;2022-12-18T09:57:13;51.45;;;21.67;;
68357;SDS011;55276;53.260;50.222;2022-12-18T09:59:55;55.30;;;21.30;;
68357;SDS011;55276;53.260;50.222;2022-12-18T10:02:25;53.08;;;20.00;;
68357;SDS011;55276;53.260;50.222;2022-12-18T10:05:04;49.40;;;20.05;;
68357;SDS011;55276;53.260;50.222;2022-12-18T10:10:46;51.42;;;20.80;;
68357;SDS011;55276;53.260;50.222;2022-12-18T10:16:13;51.03;;;19.48;;
68357;SDS011;55276;53.260;50.222;2022-12-18T10:22:15;53.50;;;21.42;;
68357;SDS011;55276;53.260;50.222;2022-12-18T10:24:26;55.67;;;21.40;;
68357;SDS011;55276;53.260;50.222;2022-12-18T10:27:08;55.00;;;21.33;;
68357;SDS011;55276;53.260;50.222;2022-12-18T10:29:42;48.88;;;20.73;;
68357;SDS011;55276;53.260;50.222;2022-12-18T10:32:21;50.33;;;18.85;;
68357;SDS011;55276;53.260;50.222;2022-12-18T10:34:52;52.28;;;20.95;;
68357;SDS011;55276;53.260;50.222;2022-12-18T10:37:21;54.47;;;21.42;;
68357;SDS011;55276;53.260;50.222;2022-12-18T10:42:34;57.20;;;21.25;;
68357;SDS011;55276;53.260;50.222;2022-12-18T10:45:02;60.95;;;22.63;;
68357;SDS011;55276;53.260;50.222;2022-12-18T10:47:33;57.38;;;22.02;;
68357;SDS011;55276;53.260;50.222;2022-12-18T10:50:00;56.40;;;22.00;;
68357;SDS011;55276;53.260;50.222;2022-12-18T10:52:27;63.50;;;26.10;;
68357;SDS011;55276;53.260;50.222;2022-12-18T10:54:59;52.17;;;22.17;;
68357;SDS011;55276;53.260;50.222;2022-12-18T10:57:30;53.00;;;21.27;;
68357;SDS011;55276;53.260;50.222;2022-12-18T11:00:00;50.97;;;19.70;;
68357;SDS011;55276;53.260;50.222;2022-12-18T11:02:45;52.42;;;22.20;;
68357;SDS011;55276;53.260;50.222;2022-12-18T11:08:02;64.00;;;23.42;;
68357;SDS011;55276;53.260;50.222;2022-12-18T11:13:11;50.95;;;20.85;;
68357;SDS011;55276;53.260;50.222;2022-12-18T11:15:43;60.10;;;22.35;;
68357;SDS011;55276;53.260;50.222;2022-12-18T11:18:20;59.35;;;23.40;;
68357;SDS011;55276;53.260;50.222;2022-12-18T11:20:51;56.33;;;22.13;;
68357;SDS011;55276;53.260;50.222;2022-12-18T11:23:26;57.28;;;22.05;;
68357;SDS011;55276;53.260;50.222;2022-12-18T11:25:57;55.03;;;19.77;;
68357;SDS011;55276;53.260;50.222;2022-12-18T11:31:08;50.50;;;22.67;;
68357;SDS011;55276;53.260;50.222;2022-12-18T11:36:51;62.83;;;23.85;;
68357;SDS011;55276;53.260;50.222;2022-12-18T11:39:24;59.10;;;24.47;;
68357;SDS011;55276;53.260;50.222;2022-12-18T11:42:09;50.70;;;20.75;;
68357;SDS011;55276;53.260;50.222;2022-12-18T11:50:52;57.72;;;22.00;;
68357;SDS011;55276;53.260;50.222;2022-12-18T11:53:19;60.55;;;23.55;;
68357;SDS011;55276;53.260;50.222;2022-12-18T11:58:51;51.88;;;20.58;;
68357;SDS011;55276;53.260;50.222;2022-12-18T12:01:39;59.00;;;22.48;;
68357;SDS011;55276;53.260;50.222;2022-12-18T12:06:59;59.00;;;24.42;;
68357;SDS011;55276;53.260;50.222;2022-12-18T12:09:53;57.42;;;23.85;;
68357;SDS011;55276;53.260;50.222;2022-12-18T12:12:55;60.10;;;24.38;;
68357;SDS011;55276;53.260;50.222;2022-12-18T12:31:33;59.90;;;24.30;;
68357;SDS011;55276;53.260;50.222;2022-12-18T12:34:25;52.55;;;21.48;;
68357;SDS011;55276;53.260;50.222;2022-12-18T12:37:12;56.95;;;24.42;;
68357;SDS011;55276;53.260;50.222;2022-12-18T12:39:58;61.53;;;24.80;;
68357;SDS011;55276;53.260;50.222;2022-12-18T12:45:29;56.85;;;23.15;;
68357;SDS011;55276;53.260;50.222;2022-12-18T12:48:02;54.97;;;21.52;;
68357;SDS011;55276;53.260;50.222;2022-12-18T12:50:33;56.67;;;23.00;;
68357;SDS011;55276;53.260;50.222;2022-12-18T12:53:01;55.60;;;23.08;;
68357;SDS011;55276;53.260;50.222;2022-12-18T12:55:32;47.13;;;20.17;;
68357;SDS011;55276;53.260;50.222;2022-12-18T13:00:53;45.75;;;18.23;;
68357;SDS011;55276;53.260;50.222;2022-12-18T13:03:35;52.60;;;20.73;;
68357;SDS011;55276;53.260;50.222;2022-12-18T13:06:53;47.65;;;20.08;;
68357;SDS011;55276;53.260;50.222;2022-12-18T13:09:03;50.22;;;20.83;;
68357;SDS011;55276;53.260;50.222;2022-12-18T13:11:30;47.47;;;19.58;;
68357;SDS011;55276;53.260;50.222;2022-12-18T13:14:35;48.22;;;20.63;;
68357;SDS011;55276;53.260;50.222;2022-12-18T13:19:51;50.10;;;21.63;;
68357;SDS011;55276;53.260;50.222;2022-12-18T13:22:39;50.22;;;22.05;;
68357;SDS011;55276;53.260;50.222;2022-12-18T13:43:57;41.10;;;18.98;;
68357;SDS011;55276;53.260;50.222;2022-12-18T13:46:51;39.72;;;18.30;;
68357;SDS011;55276;53.260;50.222;2022-12-18T13:49:23;46.80;;;19.95;;
68357;SDS011;55276;53.260;50.222;2022-12-18T13:52:01;50.67;;;22.10;;
68357;SDS011;55276;53.260;50.222;2022-12-18T13:54:39;50.35;;;22.40;;
68357;SDS011;55276;53.260;50.222;2022-12-18T13:59:56;51.70;;;22.40;;
68357;SDS011;55276;53.260;50.222;2022-12-18T14:02:24;44.88;;;19.38;;
68357;SDS011;55276;53.260;50.222;2022-12-18T14:04:53;56.70;;;23.85;;
68357;SDS011;55276;53.260;50.222;2022-12-18T14:07:26;46.00;;;21.88;;
68357;SDS011;55276;53.260;50.222;2022-12-18T14:09:59;47.65;;;19.77;;
68357;SDS011;55276;53.260;50.222;2022-12-18T14:12:27;49.88;;;22.30;;
68357;SDS011;55276;53.260;50.222;2022-12-18T14:18:20;40.72;;;17.77;;
68357;SDS011;55276;53.260;50.222;2022-12-18T14:25:04;49.58;;;21.63;;
68357;SDS011;55276;53.260;50.222;2022-12-18T14:28:15;47.83;;;22.10;;
68357;SDS011;55276;53.260;50.222;2022-12-18T14:30:53;45.58;;;20.25;;
68357;SDS011;55276;53.260;50.222;2022-12-18T14:33:32;53.47;;;21.88;;
68357;SDS011;55276;53.260;50.222;2022-12-18T14:36:13;49.35;;;21.17;;
68357;SDS011;55276;53.260;50.222;2022-12-18T14:38:42;48.60;;;19.88;;
68357;SDS011;55276;53.260;50.222;2022-12-18T14:41:13;50.10;;;21.55;;
68357;SDS011;55276;53.260;50.222;2022-12-18T14:43:46;52.47;;;24.67;;
68357;SDS011;55276;53.260;50.222;2022-12-18T14:49:15;58.95;;;24.13;;
68357;SDS011;55276;53.260;50.222;2022-12-18T14:59:12;49.72;;;22.17;;
68357;SDS011;55276;53.260;50.222;2022-12-18T15:01:45;56.17;;;24.67;;
68357;SDS011;55276;53.260;50.222;2022-12-18T15:07:07;58.83;;;23.83;;
68357;SDS011;55276;53.260;50.222;2022-12-18T15:18:11;45.35;;;21.48;;
68357;SDS011;55276;53.260;50.222;2022-12-18T15:20:46;53.28;;;22.80;;
68357;SDS011;55276;53.260;50.222;2022-12-18T15:33:29;43.17;;;19.85;;
68357;SDS011;55276;53.260;50.222;2022-12-18T15:39:24;48.20;;;20.88;;
68357;SDS011;55276;53.260;50.222;2022-12-18T15:41:50;42.78;;;20.15;;
68357;SDS011;55276;53.260;50.222;2022-12-18T15:44:35;40.50;;;18.15;;
68357;SDS011;55276;53.260;50.222;2022-12-18T15:47:22;45.22;;;19.63;;
68357;SDS011;55276;53.260;50.222;2022-12-18T15:50:07;44.95;;;21.13;;
68357;SDS011;55276;53.260;50.222;2022-12-18T15:52:40;43.53;;;20.70;;
68357;SDS011;55276;53.260;50.222;2022-12-18T15:55:19;48.15;;;19.77;;
68357;SDS011;55276;53.260;50.222;2022-12-18T15:58:10;45.85;;;19.80;;
68357;SDS011;55276;53.260;50.222;2022-12-18T16:00:39;43.97;;;19.30;;
68357;SDS011;55276;53.260;50.222;2022-12-18T16:03:06;39.38;;;16.95;;
68357;SDS011;55276;53.260;50.222;2022-12-18T16:05:32;38.58;;;17.75;;
68357;SDS011;55276;53.260;50.222;2022-12-18T16:07:59;33.75;;;17.20;;
68357;SDS011;55276;53.260;50.222;2022-12-18T16:10:25;38.72;;;17.90;;
68357;SDS011;55276;53.260;50.222;2022-12-18T16:12:52;43.97;;;18.08;;
68357;SDS011;55276;53.260;50.222;2022-12-18T16:15:19;41.35;;;17.33;;
68357;SDS011;55276;53.260;50.222;2022-12-18T16:17:48;34.25;;;14.65;;
68357;SDS011;55276;53.260;50.222;2022-12-18T16:20:24;41.72;;;17.58;;
68357;SDS011;55276;53.260;50.222;2022-12-18T16:22:50;30.15;;;12.60;;
68357;SDS011;55276;53.260;50.222;2022-12-18T16:25:25;31.98;;;15.05;;
68357;SDS011;55276;53.260;50.222;2022-12-18T16:30:24;61.13;;;25.40;;
68357;SDS011;55276;53.260;50.222;2022-12-18T16:32:54;40.25;;;16.55;;
68357;SDS011;55276;53.260;50.222;2022-12-18T16:35:22;31.65;;;13.73;;
68357;SDS011;55276;53.260;50.222;2022-12-18T16:37:49;27.58;;;12.73;;
68357;SDS011;55276;53.260;50.222;2022-12-18T16:40:16;32.33;;;14.25;;
68357;SDS011;55276;53.260;50.222;2022-12-18T16:42:43;28.73;;;12.75;;
68357;SDS011;55276;53.260;50.222;2022-12-18T16:47:49;26.13;;;11.18;;
68357;SDS011;55276;53.260;50.222;2022-12-18T16:55:55;23.05;;;9.70;;
68357;SDS011;55276;53.260;50.222;2022-12-18T17:03:19;21.35;;;9.23;;
68357;SDS011;55276;53.260;50.222;2022-12-18T17:08:12;24.92;;;10.15;;
68357;SDS011;55276;53.260;50.222;2022-12-18T17:10:42;19.80;;;8.32;;
68357;SDS011;55276;53.260;50.222;2022-12-18T17:13:19;24.88;;;10.05;;
68357;SDS011;55276;53.260;50.222;2022-12-18T17:15:54;18.92;;;8.27;;
68357;SDS011;55276;53.260;50.222;2022-12-18T17:18:24;24.75;;;9.95;;
68357;SDS011;55276;53.260;50.222;2022-12-18T17:20:55;20.25;;;9.35;;
68357;SDS011;55276;53.260;50.222;2022-12-18T17:23:27;20.58;;;8.27;;
68357;SDS011;55276;53.260;50.222;2022-12-18T17:25:57;22.10;;;8.90;;
68357;SDS011;55276;53.260;50.222;2022-12-18T17:28:26;22.20;;;9.48;;
68357;SDS011;55276;53.260;50.222;2022-12-18T17:30:53;17.58;;;8.45;;
68357;SDS011;55276;53.260;50.222;2022-12-18T17:33:21;21.15;;;9.65;;
68357;SDS011;55276;53.260;50.222;2022-12-18T17:35:50;24.63;;;10.70;;
68357;SDS011;55276;53.260;50.222;2022-12-18T17:38:18;23.85;;;10.35;;
68357;SDS011;55276;53.260;50.222;2022-12-18T17:40:44;28.73;;;10.05;;